createdAt,value
2017-06-03T00:00:14.491Z,20.00
2017-06-03T00:02:43.317Z,19.90
2017-06-03T00:05:12.161Z,19.80
2017-06-03T00:07:41.031Z,19.90
2017-06-03T00:10:09.878Z,19.80
2017-06-03T00:12:38.741Z,19.80
2017-06-03T00:15:07.554Z,19.70
2017-06-03T00:17:36.390Z,19.80
2017-06-03T00:20:05.221Z,19.70
2017-06-03T00:22:34.058Z,19.70
2017-06-03T00:25:02.873Z,19.70
2017-06-03T00:27:31.682Z,19.70
2017-06-03T00:30:00.541Z,19.60
2017-06-03T00:32:29.407Z,19.70
2017-06-03T00:34:58.302Z,19.70
2017-06-03T00:37:27.094Z,19.70
2017-06-03T00:39:55.921Z,19.70
2017-06-03T00:42:24.778Z,19.60
2017-06-03T00:44:53.587Z,19.60
2017-06-03T00:47:22.413Z,19.70
2017-06-03T00:49:51.218Z,19.60
2017-06-03T00:52:20.056Z,19.60
2017-06-03T00:54:48.930Z,19.70
2017-06-03T00:57:17.732Z,19.60
2017-06-03T00:59:46.554Z,19.60
2017-06-03T01:02:15.361Z,19.70
2017-06-03T01:04:44.206Z,19.70
2017-06-03T01:07:13.023Z,19.70
2017-06-03T01:09:41.832Z,19.60
2017-06-03T01:12:10.682Z,19.60
2017-06-03T01:14:39.502Z,19.60
2017-06-03T01:17:08.367Z,19.50
2017-06-03T01:19:37.170Z,19.50
2017-06-03T01:22:05.981Z,19.40
2017-06-03T01:24:34.799Z,19.40
2017-06-03T01:27:03.681Z,19.40
2017-06-03T01:29:32.495Z,19.40
2017-06-03T01:32:01.305Z,19.50
2017-06-03T01:34:30.175Z,19.50
2017-06-03T01:36:58.977Z,19.60
2017-06-03T01:39:27.783Z,19.60
2017-06-03T01:41:56.630Z,19.60
2017-06-03T01:44:25.445Z,19.50
2017-06-03T01:46:54.250Z,19.50
2017-06-03T01:49:23.357Z,19.50
2017-06-03T01:51:52.170Z,19.60
2017-06-03T01:54:20.966Z,19.60
2017-06-03T01:56:49.803Z,19.60
2017-06-03T01:59:18.609Z,19.60
2017-06-03T02:01:47.422Z,19.70
2017-06-03T02:04:16.246Z,19.70
2017-06-03T02:06:45.057Z,19.80
2017-06-03T02:09:13.881Z,19.80
2017-06-03T02:11:42.693Z,19.80
2017-06-03T02:14:11.577Z,19.80
2017-06-03T02:16:40.394Z,19.80
2017-06-03T02:19:09.249Z,19.70
2017-06-03T02:21:38.485Z,19.80
2017-06-03T02:24:07.294Z,19.90
2017-06-03T02:26:36.106Z,19.90
2017-06-03T02:29:04.945Z,19.80
2017-06-03T02:31:33.787Z,19.80
2017-06-03T02:34:02.603Z,19.80
2017-06-03T02:36:31.441Z,19.80
2017-06-03T02:39:00.250Z,19.80
2017-06-03T02:41:29.070Z,19.80
2017-06-03T02:43:57.910Z,19.90
2017-06-03T02:46:26.719Z,19.90
2017-06-03T02:48:55.576Z,19.70
2017-06-03T02:51:24.402Z,19.60
2017-06-03T02:53:53.210Z,19.60
2017-06-03T02:56:22.043Z,19.70
2017-06-03T02:58:50.882Z,19.70
2017-06-03T03:01:19.681Z,19.70
2017-06-03T03:03:48.513Z,19.60
2017-06-03T03:06:17.341Z,19.70
2017-06-03T03:08:46.177Z,19.70
2017-06-03T03:11:15.002Z,19.70
2017-06-03T03:13:43.801Z,19.80
2017-06-03T03:16:12.650Z,19.70
2017-06-03T03:18:41.458Z,19.70
2017-06-03T03:21:10.272Z,19.70
2017-06-03T03:23:39.097Z,19.70
2017-06-03T03:26:07.937Z,19.70
2017-06-03T03:28:36.767Z,19.70
2017-06-03T03:31:05.574Z,19.70
2017-06-03T03:33:34.430Z,19.70
2017-06-03T03:36:03.245Z,19.60
2017-06-03T03:38:32.111Z,19.60
2017-06-03T03:41:00.937Z,19.60
2017-06-03T03:43:29.745Z,19.70
2017-06-03T03:45:58.571Z,19.70
2017-06-03T03:48:27.369Z,19.70
2017-06-03T03:50:56.219Z,19.70
2017-06-03T03:53:25.137Z,19.80
2017-06-03T03:55:53.937Z,19.90
2017-06-03T03:58:22.773Z,20.00
2017-06-03T04:00:51.581Z,20.00
2017-06-03T04:03:20.394Z,20.00
2017-06-03T04:05:49.227Z,20.00
2017-06-03T04:08:18.077Z,20.00
2017-06-03T04:10:46.889Z,20.10
2017-06-03T04:13:15.765Z,20.00
2017-06-03T04:15:44.575Z,20.00
2017-06-03T04:18:13.421Z,20.10
2017-06-03T04:20:42.214Z,20.10
2017-06-03T04:23:11.084Z,20.20
2017-06-03T04:25:39.873Z,20.10
2017-06-03T04:28:08.734Z,20.10
2017-06-03T04:30:37.537Z,20.20
2017-06-03T04:33:06.346Z,20.30
2017-06-03T04:35:35.181Z,20.30
2017-06-03T04:38:04.002Z,20.30
2017-06-03T04:40:32.814Z,20.20
2017-06-03T04:43:01.646Z,20.10
2017-06-03T04:45:30.460Z,20.10
2017-06-03T04:47:59.296Z,20.20
2017-06-03T04:50:28.093Z,20.20
2017-06-03T04:52:56.938Z,20.20
2017-06-03T04:55:25.743Z,20.20
2017-06-03T04:57:54.545Z,20.30
2017-06-03T05:00:23.383Z,20.40
2017-06-03T05:02:52.205Z,20.50
2017-06-03T05:05:21.022Z,20.50
2017-06-03T05:07:49.881Z,20.50
2017-06-03T05:10:18.689Z,20.60
2017-06-03T05:12:47.534Z,20.50
2017-06-03T05:15:16.393Z,20.70
2017-06-03T05:17:45.205Z,20.70
2017-06-03T05:20:14.020Z,20.80
2017-06-03T05:22:42.855Z,20.90
2017-06-03T05:25:11.660Z,21.00
2017-06-03T05:27:40.477Z,21.10
2017-06-03T05:30:09.331Z,21.10
2017-06-03T05:32:38.138Z,21.20
2017-06-03T05:35:06.994Z,21.40
2017-06-03T05:37:35.826Z,21.30
2017-06-03T05:40:05.233Z,21.40
2017-06-03T05:42:34.050Z,21.40
2017-06-03T05:45:02.898Z,21.50
2017-06-03T05:47:31.738Z,21.60
2017-06-03T05:50:00.542Z,21.60
2017-06-03T05:52:29.353Z,21.70
2017-06-03T05:54:58.203Z,21.70
2017-06-03T05:57:27.006Z,21.80
2017-06-03T05:59:55.846Z,21.90
2017-06-03T06:02:24.664Z,21.90
2017-06-03T06:04:53.477Z,22.00
2017-06-03T06:07:22.381Z,22.10
2017-06-03T06:09:51.206Z,22.00
2017-06-03T06:12:20.017Z,22.00
2017-06-03T06:14:48.869Z,22.00
2017-06-03T06:17:17.698Z,22.00
2017-06-03T06:19:46.530Z,22.10
2017-06-03T06:22:15.366Z,22.30
2017-06-03T06:24:44.190Z,22.50
2017-06-03T06:27:13.006Z,22.90
2017-06-03T06:29:41.905Z,23.10
2017-06-03T06:32:10.766Z,23.30
2017-06-03T06:34:39.702Z,23.30
2017-06-03T06:37:08.485Z,23.50
2017-06-03T06:39:37.369Z,23.60
2017-06-03T06:42:06.204Z,23.60
2017-06-03T06:44:35.044Z,23.60
2017-06-03T06:47:03.916Z,23.80
2017-06-03T06:49:32.729Z,23.80
2017-06-03T06:52:01.596Z,23.90
2017-06-03T06:54:30.409Z,23.90
2017-06-03T06:56:59.226Z,23.80
2017-06-03T06:59:28.051Z,23.70
2017-06-03T07:01:56.902Z,23.60
2017-06-03T07:04:25.726Z,23.40
2017-06-03T07:06:54.561Z,23.30
2017-06-03T07:09:23.413Z,23.20
2017-06-03T07:11:52.230Z,23.20
2017-06-03T07:14:21.050Z,23.10
2017-06-03T07:16:49.926Z,23.30
2017-06-03T07:19:18.762Z,23.20
2017-06-03T07:21:47.581Z,23.30
2017-06-03T07:24:16.422Z,23.20
2017-06-03T07:27:18.078Z,23.20
2017-06-03T07:29:46.913Z,23.30
2017-06-03T07:32:14.982Z,23.30
2017-06-03T07:34:43.084Z,23.60
2017-06-03T07:37:11.186Z,23.50
2017-06-03T07:39:40.010Z,23.80
2017-06-03T07:42:08.118Z,23.80
2017-06-03T07:44:36.190Z,23.70
2017-06-03T07:47:04.294Z,23.70
2017-06-03T07:49:33.336Z,24.00
2017-06-03T07:52:01.381Z,24.10
2017-06-03T07:54:29.459Z,24.40
2017-06-03T07:56:57.562Z,24.40
2017-06-03T07:59:25.665Z,24.70
2017-06-03T08:01:54.502Z,25.00
2017-06-03T08:04:22.625Z,25.00
2017-06-03T08:06:51.457Z,25.20
2017-06-03T08:09:19.534Z,25.20
2017-06-03T08:11:47.616Z,25.40
2017-06-03T08:14:15.691Z,25.60
2017-06-03T08:16:43.789Z,25.70
2017-06-03T08:19:11.862Z,26.10
2017-06-03T08:21:39.925Z,26.50
2017-06-03T08:24:07.565Z,26.60
2017-06-03T08:26:35.549Z,27.10
2017-06-03T08:29:03.659Z,26.80
2017-06-03T08:31:31.996Z,26.80
2017-06-03T08:34:00.033Z,26.70
2017-06-03T08:36:28.129Z,26.70
2017-06-03T08:38:56.194Z,26.70
2017-06-03T08:41:24.293Z,26.60
2017-06-03T08:43:52.447Z,26.30
2017-06-03T08:46:20.483Z,26.10
2017-06-03T08:48:48.577Z,25.80
2017-06-03T08:51:16.638Z,25.70
2017-06-03T08:53:44.738Z,25.70
2017-06-03T08:56:12.822Z,25.80
2017-06-03T08:58:40.910Z,26.10
2017-06-03T09:01:09.026Z,26.60
2017-06-03T09:03:37.089Z,26.60
2017-06-03T09:06:05.166Z,26.50
2017-06-03T09:08:33.294Z,26.60
2017-06-03T09:11:01.348Z,27.00
2017-06-03T09:13:29.468Z,27.10
2017-06-03T09:15:58.295Z,27.30
2017-06-03T09:18:26.353Z,27.20
2017-06-03T09:20:54.454Z,27.30
2017-06-03T09:23:22.513Z,27.40
2017-06-03T09:25:50.578Z,27.30
2017-06-03T09:28:18.678Z,27.50
2017-06-03T09:30:46.738Z,27.80
2017-06-03T09:33:14.898Z,28.00
2017-06-03T09:35:43.008Z,28.00
2017-06-03T09:38:11.049Z,28.00
2017-06-03T09:40:39.145Z,28.20
2017-06-03T09:43:07.204Z,28.60
2017-06-03T09:45:35.265Z,28.90
2017-06-03T09:48:03.342Z,28.90
2017-06-03T09:50:31.399Z,29.40
2017-06-03T09:52:59.513Z,29.80
2017-06-03T09:55:27.570Z,29.80
2017-06-03T09:57:55.646Z,29.60
2017-06-03T10:00:23.757Z,29.60
2017-06-03T10:02:51.991Z,29.70
2017-06-03T10:05:20.058Z,29.90
2017-06-03T10:07:48.129Z,30.20
2017-06-03T10:10:16.206Z,30.60
2017-06-03T10:12:44.425Z,31.00
2017-06-03T10:15:13.263Z,31.70
2017-06-03T10:17:41.322Z,31.70
2017-06-03T10:20:09.510Z,32.10
2017-06-03T10:22:37.557Z,31.80
2017-06-03T10:25:05.613Z,31.60
2017-06-03T10:27:33.713Z,31.70
2017-06-03T10:30:01.393Z,32.00
2017-06-03T10:32:28.882Z,31.50
2017-06-03T10:34:56.411Z,30.60
2017-06-03T10:37:24.370Z,30.70
2017-06-03T10:39:52.462Z,31.50
2017-06-03T10:42:20.509Z,32.00
2017-06-03T10:44:48.569Z,32.60
2017-06-03T10:47:16.645Z,32.80
2017-06-03T10:49:44.705Z,33.20
2017-06-03T10:52:12.778Z,33.80
2017-06-03T10:54:40.825Z,34.00
2017-06-03T10:57:09.229Z,32.80
2017-06-03T10:59:36.741Z,32.80
2017-06-03T11:02:04.275Z,32.50
2017-06-03T11:04:31.802Z,32.30
2017-06-03T11:06:59.313Z,31.80
2017-06-03T11:09:26.836Z,31.20
2017-06-03T11:11:54.357Z,30.60
2017-06-03T11:14:21.893Z,29.80
2017-06-03T11:16:49.393Z,29.50
2017-06-03T11:19:16.920Z,29.10
2017-06-03T11:21:44.417Z,28.70
2017-06-03T11:24:11.985Z,28.60
2017-06-03T11:26:39.538Z,28.40
2017-06-03T11:29:07.037Z,28.20
2017-06-03T11:31:34.585Z,28.00
2017-06-03T11:34:02.093Z,27.90
2017-06-03T11:36:30.385Z,27.50
2017-06-03T11:38:57.896Z,27.50
2017-06-03T11:41:25.442Z,27.30
2017-06-03T11:43:52.940Z,26.90
2017-06-03T11:46:21.209Z,26.30
2017-06-03T11:48:49.216Z,26.20
2017-06-03T11:51:17.420Z,25.90
2017-06-03T11:53:45.505Z,25.60
2017-06-03T11:56:13.612Z,25.40
2017-06-03T11:58:42.446Z,23.80
2017-06-03T12:01:10.506Z,23.80
2017-06-03T12:03:38.595Z,23.20
2017-06-03T12:06:06.647Z,22.80
2017-06-03T12:08:34.693Z,22.30
2017-06-03T12:11:02.778Z,22.10
2017-06-03T12:13:30.834Z,21.80
2017-06-03T12:15:59.697Z,21.00
2017-06-03T12:18:27.757Z,21.00
2017-06-03T12:20:55.812Z,20.80
2017-06-03T12:23:23.921Z,20.80
2017-06-03T12:25:51.982Z,20.90
2017-06-03T12:28:20.025Z,20.90
2017-06-03T12:30:48.126Z,21.00
2017-06-03T12:33:16.169Z,21.30
2017-06-03T12:35:44.221Z,21.50
2017-06-03T12:38:12.305Z,21.50
2017-06-03T12:40:40.391Z,21.60
2017-06-03T12:43:08.549Z,21.60
2017-06-03T12:45:37.372Z,21.60
2017-06-03T12:48:05.432Z,21.60
2017-06-03T12:50:33.478Z,21.60
2017-06-03T12:53:01.834Z,21.70
2017-06-03T12:55:30.685Z,21.60
2017-06-03T12:57:58.785Z,21.60
2017-06-03T13:00:27.624Z,21.60
2017-06-03T13:02:55.804Z,21.60
2017-06-03T13:05:23.870Z,21.60
2017-06-03T13:07:51.922Z,21.60
2017-06-03T13:10:20.017Z,21.60
2017-06-03T13:12:48.070Z,21.60
2017-06-03T13:15:16.133Z,21.70
2017-06-03T13:17:44.197Z,21.90
2017-06-03T13:20:12.249Z,21.90
2017-06-03T13:22:41.094Z,22.00
2017-06-03T13:25:09.146Z,22.00
2017-06-03T13:27:37.246Z,21.80
2017-06-03T13:30:05.297Z,21.70
2017-06-03T13:32:33.358Z,21.90
2017-06-03T13:35:01.436Z,22.20
2017-06-03T13:37:29.532Z,22.10
2017-06-03T13:39:57.610Z,22.00
2017-06-03T13:42:25.657Z,22.00
2017-06-03T13:44:53.749Z,22.00
2017-06-03T13:47:21.798Z,22.10
2017-06-03T13:49:49.854Z,22.20
2017-06-03T13:52:18.045Z,22.40
2017-06-03T13:54:46.159Z,22.50
2017-06-03T13:57:14.198Z,22.50
2017-06-03T13:59:41.830Z,22.50
2017-06-03T14:02:09.328Z,22.50
2017-06-03T14:04:37.377Z,22.60
2017-06-03T14:07:05.473Z,22.70
2017-06-03T14:09:33.562Z,22.80
2017-06-03T14:12:01.618Z,22.90
2017-06-03T14:14:29.665Z,23.00
2017-06-03T14:16:57.754Z,23.20
2017-06-03T14:19:25.808Z,23.40
2017-06-03T14:21:53.866Z,23.80
2017-06-03T14:24:21.950Z,24.00
2017-06-03T14:26:50.023Z,24.10
2017-06-03T14:29:18.090Z,24.10
2017-06-03T14:31:46.209Z,23.90
2017-06-03T14:34:14.287Z,23.90
2017-06-03T14:36:42.346Z,23.90
2017-06-03T14:39:10.406Z,23.80
2017-06-03T14:41:38.489Z,23.70
2017-06-03T14:44:06.537Z,23.60
2017-06-03T14:46:34.594Z,23.40
2017-06-03T14:49:02.665Z,23.50
2017-06-03T14:51:30.718Z,23.50
2017-06-03T14:53:58.802Z,23.60
2017-06-03T14:56:26.850Z,24.00
2017-06-03T14:58:55.675Z,25.40
2017-06-03T15:01:23.750Z,25.30
2017-06-03T15:03:51.797Z,25.90
2017-06-03T15:06:19.888Z,26.50
2017-06-03T15:08:47.951Z,26.80
2017-06-03T15:11:16.142Z,27.40
2017-06-03T15:13:44.193Z,27.10
2017-06-03T15:16:12.251Z,26.80
2017-06-03T15:18:41.187Z,26.50
2017-06-03T15:21:09.222Z,26.50
2017-06-03T15:23:37.278Z,26.30
2017-06-03T15:26:06.130Z,25.80
2017-06-03T15:28:34.186Z,25.70
2017-06-03T15:31:02.234Z,25.50
2017-06-03T15:33:30.309Z,25.20
2017-06-03T15:35:58.367Z,25.00
2017-06-03T15:38:26.458Z,24.80
2017-06-03T15:40:54.539Z,24.50
2017-06-03T15:43:22.607Z,24.40
2017-06-03T15:45:50.689Z,24.30
2017-06-03T15:48:18.281Z,24.10
2017-06-03T15:50:45.817Z,23.80
2017-06-03T15:53:13.428Z,23.60
2017-06-03T15:55:40.986Z,23.50
2017-06-03T15:58:08.486Z,23.40
2017-06-03T16:00:36.408Z,23.40
2017-06-03T16:03:04.725Z,23.30
2017-06-03T16:05:32.257Z,23.30
2017-06-03T16:08:00.605Z,23.30
2017-06-03T16:10:28.181Z,23.30
2017-06-03T16:12:55.753Z,23.10
2017-06-03T16:15:24.064Z,23.10
2017-06-03T16:17:51.758Z,23.10
2017-06-03T16:20:19.328Z,23.10
2017-06-03T16:22:46.890Z,23.00
2017-06-03T16:25:14.416Z,23.00
2017-06-03T16:27:41.936Z,23.00
2017-06-03T16:30:10.254Z,23.10
2017-06-03T16:32:37.789Z,23.10
2017-06-03T16:35:05.338Z,23.10
2017-06-03T16:37:32.868Z,23.10
2017-06-03T16:40:00.567Z,23.10
2017-06-03T16:42:28.847Z,23.00
2017-06-03T16:44:56.398Z,23.00
2017-06-03T16:47:24.725Z,22.90
2017-06-03T16:49:52.344Z,22.90
2017-06-03T16:52:20.614Z,22.70
2017-06-03T16:54:48.125Z,22.70
2017-06-03T16:57:15.706Z,22.60
2017-06-03T16:59:43.229Z,22.50
2017-06-03T17:02:10.794Z,22.50
2017-06-03T17:04:38.318Z,22.50
2017-06-03T17:07:05.861Z,22.50
2017-06-03T17:09:33.487Z,22.40
2017-06-03T17:12:00.993Z,22.30
2017-06-03T17:14:28.589Z,22.30
2017-06-03T17:16:56.130Z,22.20
2017-06-03T17:19:23.667Z,22.10
2017-06-03T17:21:51.221Z,22.00
2017-06-03T17:24:19.605Z,21.90
2017-06-03T17:26:47.092Z,21.90
2017-06-03T17:29:14.609Z,21.90
2017-06-03T17:31:42.952Z,21.80
2017-06-03T17:34:10.772Z,21.80
2017-06-03T17:36:38.297Z,21.80
2017-06-03T17:39:05.822Z,21.70
2017-06-03T17:41:33.347Z,21.60
2017-06-03T17:44:00.886Z,21.50
2017-06-03T17:46:29.175Z,21.40
2017-06-03T17:48:57.438Z,21.30
2017-06-03T17:51:24.969Z,21.30
2017-06-03T17:53:52.473Z,21.30
2017-06-03T17:56:20.006Z,21.30
2017-06-03T17:58:47.552Z,21.30
2017-06-03T18:01:15.105Z,21.30
2017-06-03T18:03:42.657Z,21.30
2017-06-03T18:06:10.213Z,21.20
2017-06-03T18:08:37.750Z,21.20
2017-06-03T18:11:05.248Z,21.20
2017-06-03T18:13:33.522Z,21.10
2017-06-03T18:16:01.029Z,21.10
2017-06-03T18:18:28.533Z,21.10
2017-06-03T18:21:01.893Z,21.00
2017-06-03T18:23:29.401Z,21.00
2017-06-03T18:25:56.929Z,21.00
2017-06-03T18:28:24.445Z,21.00
2017-06-03T18:30:52.757Z,21.00
2017-06-03T18:33:20.256Z,21.00
2017-06-03T18:35:47.782Z,20.90
2017-06-03T18:38:15.304Z,20.90
2017-06-03T18:40:43.577Z,21.00
2017-06-03T18:43:11.878Z,20.90
2017-06-03T18:45:39.390Z,20.90
2017-06-03T18:48:06.922Z,20.90
2017-06-03T18:50:35.201Z,20.90
2017-06-03T18:53:03.488Z,20.90
2017-06-03T18:55:31.753Z,20.90
2017-06-03T18:58:00.045Z,20.80
2017-06-03T19:00:27.600Z,20.80
2017-06-03T19:02:55.890Z,20.70
2017-06-03T19:05:24.239Z,20.60
2017-06-03T19:07:52.524Z,20.60
2017-06-03T19:10:21.126Z,20.50
2017-06-03T19:12:48.672Z,20.50
2017-06-03T19:15:17.116Z,20.50
2017-06-03T19:17:44.635Z,20.40
2017-06-03T19:20:12.140Z,20.30
2017-06-03T19:22:39.670Z,20.20
2017-06-03T19:25:07.174Z,19.90
2017-06-03T19:27:34.679Z,19.80
2017-06-03T19:30:02.193Z,19.60
2017-06-03T19:32:30.469Z,19.40
2017-06-03T19:34:58.797Z,19.30
2017-06-03T19:37:26.300Z,19.30
2017-06-03T19:39:53.800Z,19.00
2017-06-03T19:42:21.340Z,18.90
2017-06-03T19:44:48.855Z,18.80
2017-06-03T19:47:16.362Z,18.70
2017-06-03T19:49:43.888Z,18.70
2017-06-03T19:52:13.052Z,18.60
2017-06-03T19:54:40.570Z,18.60
2017-06-03T19:57:08.833Z,18.70
2017-06-03T19:59:37.116Z,18.60
2017-06-03T20:02:05.381Z,18.50
2017-06-03T20:04:34.201Z,18.50
2017-06-03T20:07:01.701Z,18.50
2017-06-03T20:09:29.937Z,18.50
2017-06-03T20:11:57.453Z,18.50
2017-06-03T20:14:24.988Z,18.50
2017-06-03T20:16:52.488Z,18.40
2017-06-03T20:19:20.800Z,18.40
2017-06-03T20:21:48.324Z,18.30
2017-06-03T20:24:16.593Z,18.40
2017-06-03T20:26:44.109Z,18.30
2017-06-03T20:29:11.635Z,18.30
2017-06-03T20:31:39.137Z,18.30
2017-06-03T20:34:06.717Z,18.30
2017-06-03T20:36:34.245Z,18.20
2017-06-03T20:39:01.753Z,18.10
2017-06-03T20:41:29.294Z,18.10
2017-06-03T20:43:56.793Z,18.00
2017-06-03T20:46:25.070Z,18.00
2017-06-03T20:48:52.604Z,18.00
2017-06-03T20:51:20.115Z,18.10
2017-06-03T20:53:47.621Z,18.00
2017-06-03T20:56:15.492Z,18.00
2017-06-03T20:58:43.770Z,18.10
2017-06-03T21:01:12.077Z,18.10
2017-06-03T21:03:39.586Z,18.10
2017-06-03T21:06:07.091Z,18.10
2017-06-03T21:08:34.618Z,18.10
2017-06-03T21:11:02.149Z,18.20
2017-06-03T21:13:29.655Z,18.20
2017-06-03T21:15:57.938Z,18.20
2017-06-03T21:18:25.436Z,18.20
2017-06-03T21:20:52.956Z,18.20
2017-06-03T21:23:20.457Z,18.20
2017-06-03T21:25:48.625Z,18.10
2017-06-03T21:28:16.122Z,18.20
2017-06-03T21:30:43.629Z,18.10
2017-06-03T21:33:11.161Z,18.10
2017-06-03T21:35:39.450Z,18.00
2017-06-03T21:38:07.001Z,18.00
2017-06-03T21:40:34.510Z,18.00
2017-06-03T21:43:02.022Z,18.00
2017-06-03T21:45:29.545Z,18.00
2017-06-03T21:47:57.084Z,18.00
2017-06-03T21:50:24.589Z,18.00
2017-06-03T21:52:52.877Z,18.00
2017-06-03T21:55:20.397Z,17.90
2017-06-03T21:57:47.896Z,18.00
2017-06-03T22:00:15.480Z,18.00
2017-06-03T22:02:42.978Z,18.00
2017-06-03T22:05:10.491Z,18.00
2017-06-03T22:07:38.013Z,18.00
2017-06-03T22:10:06.322Z,18.10
2017-06-03T22:12:33.850Z,18.10
2017-06-03T22:15:02.117Z,18.00
2017-06-03T22:17:30.461Z,18.00
2017-06-03T22:19:57.975Z,18.00
2017-06-03T22:22:26.266Z,18.20
2017-06-03T22:24:53.785Z,18.20
2017-06-03T22:27:21.344Z,18.20
2017-06-03T22:29:48.862Z,18.10
2017-06-03T22:32:16.357Z,18.20
2017-06-03T22:34:43.882Z,18.30
2017-06-03T22:37:11.380Z,18.30
2017-06-03T22:39:39.686Z,18.20
2017-06-03T22:42:07.185Z,18.20
2017-06-03T22:44:34.719Z,18.20
2017-06-03T22:47:02.225Z,18.20
2017-06-03T22:49:29.725Z,18.20
2017-06-03T22:51:57.244Z,18.10
2017-06-03T22:54:24.748Z,18.00
2017-06-03T22:56:52.274Z,18.00
2017-06-03T22:59:20.565Z,18.10
2017-06-03T23:01:48.846Z,18.10
2017-06-03T23:04:17.117Z,18.10
2017-06-03T23:06:44.644Z,18.10
2017-06-03T23:09:12.178Z,18.10
2017-06-03T23:11:39.677Z,18.10
2017-06-03T23:14:07.206Z,18.00
2017-06-03T23:16:34.704Z,18.00
2017-06-03T23:19:03.009Z,18.10
2017-06-03T23:21:30.512Z,18.10
2017-06-03T23:23:58.028Z,18.10
2017-06-03T23:26:25.544Z,18.10
2017-06-03T23:28:53.045Z,18.10
2017-06-03T23:31:20.576Z,18.10
2017-06-03T23:33:48.845Z,18.20
2017-06-03T23:36:17.117Z,18.20
2017-06-03T23:38:44.646Z,18.20
2017-06-03T23:41:12.153Z,18.20
2017-06-03T23:43:40.440Z,17.90
2017-06-03T23:46:07.943Z,17.90
2017-06-03T23:48:35.445Z,17.90
2017-06-03T23:51:03.744Z,17.90
2017-06-03T23:53:31.237Z,17.90
2017-06-03T23:55:58.766Z,17.90
2017-06-03T23:58:26.268Z,17.80
